createdAt,value
2023-03-06T00:02:00.942Z,77.53
2023-03-06T00:06:04.798Z,77.74
2023-03-06T00:10:05.574Z,77.59
2023-03-06T00:14:06.152Z,77.95
2023-03-06T00:18:08.444Z,77.76
2023-03-06T00:22:16.606Z,77.99
2023-03-06T00:26:17.093Z,77.93
2023-03-06T00:30:21.561Z,77.97
2023-03-06T00:34:22.085Z,77.91
2023-03-06T00:38:27.752Z,77.76
2023-03-06T00:42:32.772Z,78.28
2023-03-06T00:46:33.445Z,78.84
2023-03-06T00:50:35.283Z,79.02
2023-03-06T00:54:38.518Z,78.58
2023-03-06T00:58:39.824Z,78.85
2023-03-06T01:02:40.440Z,79.09
2023-03-06T01:06:41.096Z,79.01
2023-03-06T01:10:44.771Z,79.00
2023-03-06T01:14:45.658Z,78.94
2023-03-06T01:18:46.220Z,79.07
2023-03-06T01:22:46.921Z,79.22
2023-03-06T01:26:50.313Z,78.97
2023-03-06T01:30:50.776Z,78.79
2023-03-06T01:34:52.013Z,78.91
2023-03-06T01:38:52.607Z,78.85
2023-03-06T01:42:55.804Z,79.22
2023-03-06T01:46:56.768Z,79.05
2023-03-06T01:50:58.397Z,79.21
2023-03-06T01:55:04.717Z,79.20
2023-03-06T01:59:10.199Z,78.97
2023-03-06T02:03:17.475Z,79.18
2023-03-06T02:07:22.661Z,79.05
2023-03-06T02:11:25.920Z,79.14
2023-03-06T02:15:31.087Z,79.00
2023-03-06T02:19:48.097Z,78.90
2023-03-06T02:24:04.571Z,78.99
2023-03-06T02:28:12.134Z,79.17
2023-03-06T02:32:13.782Z,79.20
2023-03-06T02:36:19.138Z,79.38
2023-03-06T02:40:23.869Z,79.83
2023-03-06T02:44:30.702Z,79.74
2023-03-06T02:48:32.252Z,79.53
2023-03-06T02:52:33.790Z,79.27
2023-03-06T02:56:35.882Z,79.35
2023-03-06T03:00:40.230Z,79.17
2023-03-06T03:04:43.023Z,79.01
2023-03-06T03:08:44.267Z,78.85
2023-03-06T03:12:46.392Z,79.14
2023-03-06T03:16:50.579Z,79.25
2023-03-06T03:20:51.246Z,79.17
2023-03-06T03:24:52.128Z,79.37
2023-03-06T03:28:52.987Z,79.32
2023-03-06T03:32:57.890Z,79.55
2023-03-06T03:36:59.374Z,79.73
2023-03-06T03:41:01.319Z,79.79
2023-03-06T03:45:02.108Z,79.86
2023-03-06T03:49:06.183Z,80.16
2023-03-06T03:53:07.130Z,80.81
2023-03-06T03:57:08.503Z,81.43
2023-03-06T04:01:13.108Z,81.77
2023-03-06T04:05:18.977Z,81.92
2023-03-06T04:09:20.555Z,82.48
2023-03-06T04:13:22.490Z,82.47
2023-03-06T04:17:23.614Z,82.43
2023-03-06T04:21:28.502Z,82.34
2023-03-06T04:25:28.998Z,82.83
2023-03-06T04:29:29.490Z,82.84
2023-03-06T04:33:30.670Z,83.39
2023-03-06T04:37:35.287Z,83.56
2023-03-06T04:41:38.185Z,84.00
2023-03-06T04:45:39.209Z,84.23
2023-03-06T04:49:40.068Z,84.58
2023-03-06T04:53:43.138Z,84.20
2023-03-06T04:57:46.404Z,84.30
2023-03-06T05:01:47.026Z,84.32
2023-03-06T05:05:47.880Z,84.25
2023-03-06T05:09:51.328Z,83.30
2023-03-06T05:13:52.654Z,83.13
2023-03-06T05:17:53.058Z,83.12
2023-03-06T05:21:53.674Z,83.14
2023-03-06T05:25:57.176Z,83.01
2023-03-06T05:29:58.380Z,82.99
2023-03-06T05:34:00.865Z,83.08
2023-03-06T05:38:01.205Z,83.60
2023-03-06T05:42:04.605Z,83.36
2023-03-06T05:46:06.548Z,83.27
2023-03-06T05:50:10.610Z,83.44
2023-03-06T05:54:11.515Z,83.39
2023-03-06T05:58:14.604Z,83.13
2023-03-06T06:02:15.371Z,83.54
2023-03-06T06:06:17.969Z,83.26
2023-03-06T06:10:18.361Z,83.41
2023-03-06T06:14:21.379Z,85.08
2023-03-06T06:18:21.980Z,85.77
2023-03-06T06:22:22.412Z,84.67
2023-03-06T06:26:23.026Z,83.95
2023-03-06T06:30:27.702Z,83.44
2023-03-06T06:34:28.671Z,82.29
2023-03-06T06:38:29.274Z,82.17
2023-03-06T06:42:36.313Z,81.02
2023-03-06T06:51:05.834Z,79.62
2023-03-06T06:55:06.414Z,79.24
2023-03-06T06:59:15.987Z,78.38
2023-03-06T07:03:20.105Z,77.98
2023-03-06T07:07:20.815Z,78.06
2023-03-06T07:11:21.870Z,78.22
2023-03-06T07:15:23.030Z,76.75
2023-03-06T07:19:26.441Z,75.38
2023-03-06T07:23:27.891Z,74.92
2023-03-06T07:27:28.579Z,73.27
2023-03-06T07:31:30.933Z,71.90
2023-03-06T07:35:34.104Z,69.96
2023-03-06T07:39:34.337Z,70.26
2023-03-06T07:43:35.307Z,69.14
2023-03-06T07:47:39.935Z,70.31
2023-03-06T07:51:43.123Z,71.05
2023-03-06T07:55:44.678Z,70.97
2023-03-06T07:59:45.227Z,70.24
2023-03-06T08:03:46.470Z,70.45
2023-03-06T08:07:49.627Z,70.85
2023-03-06T08:11:50.229Z,70.81
2023-03-06T08:15:53.835Z,70.20
2023-03-06T08:19:54.481Z,68.73
2023-03-06T08:23:58.122Z,67.91
2023-03-06T08:27:58.426Z,67.27
2023-03-06T08:31:59.157Z,66.40
2023-03-06T08:36:02.290Z,66.97
2023-03-06T08:40:07.129Z,67.89
2023-03-06T08:44:08.465Z,66.41
2023-03-06T08:48:10.771Z,67.12
2023-03-06T08:52:11.487Z,66.55
2023-03-06T08:56:19.575Z,64.89
2023-03-06T09:00:22.221Z,63.45
2023-03-06T09:04:23.094Z,63.68
2023-03-06T09:08:23.393Z,63.13
2023-03-06T09:12:27.236Z,61.94
2023-03-06T09:16:28.927Z,61.56
2023-03-06T09:20:29.432Z,62.91
2023-03-06T09:24:29.780Z,62.23
2023-03-06T09:28:32.797Z,61.59
2023-03-06T09:32:33.244Z,61.60
2023-03-06T09:36:42.896Z,62.28
2023-03-06T09:45:14.927Z,60.60
2023-03-06T09:49:56.308Z,61.47
2023-03-06T09:54:08.473Z,60.33
2023-03-06T09:58:20.117Z,59.98
2023-03-06T10:02:34.481Z,60.39
2023-03-06T10:06:44.300Z,59.73
2023-03-06T10:10:53.953Z,60.17
2023-03-06T10:15:14.594Z,60.93
2023-03-06T10:19:21.159Z,60.34
2023-03-06T10:23:49.932Z,59.22
2023-03-06T10:27:53.311Z,58.48
2023-03-06T10:32:07.154Z,57.87
2023-03-06T10:36:18.550Z,56.23
2023-03-06T10:40:37.811Z,55.82
2023-03-06T10:44:38.333Z,56.96
2023-03-06T10:48:42.342Z,58.30
2023-03-06T10:52:45.910Z,58.61
2023-03-06T10:56:49.149Z,58.63
2023-03-06T11:00:49.930Z,60.07
2023-03-06T11:04:55.919Z,60.45
2023-03-06T11:09:17.664Z,60.12
2023-03-06T11:13:28.065Z,60.05
2023-03-06T11:17:33.513Z,57.88
2023-03-06T11:21:36.038Z,56.85
2023-03-06T11:25:44.505Z,57.37
2023-03-06T11:29:49.146Z,56.87
2023-03-06T11:33:55.695Z,57.83
2023-03-06T11:38:01.042Z,61.78
2023-03-06T11:42:20.163Z,69.24
2023-03-06T11:46:28.525Z,75.38
2023-03-06T11:50:37.621Z,77.59
2023-03-06T11:54:39.199Z,78.58
2023-03-06T11:59:12.449Z,76.69
2023-03-06T12:03:57.902Z,71.99
2023-03-06T12:08:17.327Z,69.71
2023-03-06T12:12:48.691Z,63.04
2023-03-06T12:17:20.577Z,64.92
2023-03-06T12:21:37.052Z,66.49
2023-03-06T12:25:41.820Z,68.79
2023-03-06T12:30:28.438Z,71.58
2023-03-06T12:34:56.078Z,72.26
2023-03-06T12:39:12.055Z,70.33
2023-03-06T12:43:53.815Z,69.56
2023-03-06T12:47:59.552Z,69.44
2023-03-06T12:52:05.268Z,69.74
2023-03-06T12:56:06.980Z,67.42
2023-03-06T13:00:09.482Z,66.99
2023-03-06T13:04:38.563Z,66.07
2023-03-06T13:09:21.134Z,65.18
2023-03-06T13:13:36.122Z,65.69
2023-03-06T13:17:41.987Z,66.50
2023-03-06T13:22:18.221Z,65.87
2023-03-06T13:27:05.984Z,63.60
2023-03-06T13:31:10.614Z,61.92
2023-03-06T13:35:57.829Z,61.00
2023-03-06T13:40:34.296Z,57.55
2023-03-06T13:44:49.186Z,57.29
2023-03-06T13:49:05.386Z,57.21
2023-03-06T13:53:51.049Z,57.14
2023-03-06T13:58:14.551Z,56.72
2023-03-06T14:02:44.632Z,55.16
2023-03-06T14:07:06.534Z,55.55
2023-03-06T14:11:21.485Z,55.29
2023-03-06T14:15:28.439Z,52.06
2023-03-06T14:19:39.543Z,55.09
2023-03-06T14:23:42.719Z,54.27
2023-03-06T14:27:51.676Z,54.83
2023-03-06T14:31:55.949Z,54.98
2023-03-06T14:36:03.820Z,56.11
2023-03-06T14:40:05.241Z,58.82
2023-03-06T14:44:28.160Z,65.28
2023-03-06T14:48:42.150Z,66.05
2023-03-06T14:52:46.024Z,67.38
2023-03-06T14:56:49.482Z,70.53
2023-03-06T15:00:56.770Z,69.56
2023-03-06T15:05:04.576Z,69.87
2023-03-06T15:09:20.497Z,70.55
2023-03-06T15:13:26.241Z,72.84
2023-03-06T15:17:32.254Z,74.69
2023-03-06T15:21:39.985Z,76.41
2023-03-06T15:25:43.453Z,77.65
2023-03-06T15:29:44.003Z,78.69
2023-03-06T15:33:44.450Z,78.03
2023-03-06T15:37:46.042Z,77.55
2023-03-06T15:41:49.276Z,76.52
2023-03-06T15:45:50.854Z,77.88
2023-03-06T15:49:53.392Z,80.73
2023-03-06T15:53:57.208Z,83.43
2023-03-06T15:58:09.247Z,84.11
2023-03-06T16:02:20.449Z,84.71
2023-03-06T16:06:23.615Z,85.21
2023-03-06T16:10:26.869Z,85.23
2023-03-06T16:14:30.397Z,84.61
2023-03-06T16:18:31.759Z,83.68
2023-03-06T16:22:32.028Z,84.01
2023-03-06T16:26:36.782Z,83.41
2023-03-06T16:30:40.245Z,82.78
2023-03-06T16:34:44.360Z,82.39
2023-03-06T16:38:46.484Z,81.91
2023-03-06T16:42:46.955Z,81.82
2023-03-06T16:46:53.446Z,81.66
2023-03-06T16:50:54.528Z,82.10
2023-03-06T16:54:54.844Z,82.34
2023-03-06T16:58:55.435Z,82.28
2023-03-06T17:02:59.083Z,82.59
2023-03-06T17:06:59.853Z,82.46
2023-03-06T17:11:03.439Z,82.62
2023-03-06T17:15:03.796Z,82.47
2023-03-06T17:19:06.989Z,81.59
2023-03-06T17:23:07.546Z,80.28
2023-03-06T17:27:08.155Z,79.37
2023-03-06T17:31:16.911Z,76.22
2023-03-06T17:35:20.258Z,75.89
2023-03-06T17:39:21.078Z,75.06
2023-03-06T17:43:21.814Z,73.07
2023-03-06T17:47:22.610Z,73.06
2023-03-06T17:51:26.118Z,72.74
2023-03-06T17:55:27.414Z,73.24
2023-03-06T17:59:27.935Z,72.59
2023-03-06T18:03:28.900Z,72.60
2023-03-06T18:07:32.280Z,72.50
2023-03-06T18:11:32.857Z,72.73
2023-03-06T18:15:33.242Z,72.76
2023-03-06T18:19:33.975Z,73.01
2023-03-06T18:23:37.291Z,73.04
2023-03-06T18:27:38.411Z,73.73
2023-03-06T18:31:41.179Z,74.01
2023-03-06T18:35:44.276Z,74.10
2023-03-06T18:39:48.068Z,74.44
2023-03-06T18:43:54.193Z,73.26
2023-03-06T18:47:54.569Z,72.48
2023-03-06T18:51:55.046Z,74.19
2023-03-06T18:55:58.480Z,74.59
2023-03-06T18:59:59.460Z,75.00
2023-03-06T19:04:04.751Z,74.58
2023-03-06T19:08:05.220Z,74.33
2023-03-06T19:12:09.481Z,75.20
2023-03-06T19:16:11.755Z,74.75
2023-03-06T19:20:15.828Z,74.88
2023-03-06T19:24:16.628Z,75.22
2023-03-06T19:28:19.914Z,76.32
2023-03-06T19:32:20.396Z,76.34
2023-03-06T19:36:24.497Z,76.37
2023-03-06T19:40:25.054Z,75.50
2023-03-06T19:44:28.222Z,75.17
2023-03-06T19:48:29.052Z,76.08
2023-03-06T19:52:30.802Z,75.98
2023-03-06T19:56:33.805Z,77.33
2023-03-06T20:00:38.221Z,77.56
2023-03-06T20:04:41.232Z,78.03
2023-03-06T20:08:41.889Z,78.12
2023-03-06T20:12:42.556Z,79.39
2023-03-06T20:16:46.133Z,78.85
2023-03-06T20:20:46.640Z,80.66
2023-03-06T20:24:47.110Z,80.60
2023-03-06T20:28:47.630Z,80.44
2023-03-06T20:32:51.714Z,81.05
2023-03-06T20:36:52.106Z,81.50
2023-03-06T20:40:54.814Z,81.27
2023-03-06T20:44:55.203Z,81.25
2023-03-06T20:48:59.653Z,81.30
2023-03-06T20:53:01.034Z,81.90
2023-03-06T20:57:02.306Z,81.46
2023-03-06T21:01:02.904Z,81.18
2023-03-06T21:05:06.820Z,82.04
2023-03-06T21:09:09.955Z,81.21
2023-03-06T21:13:10.617Z,80.79
2023-03-06T21:17:12.290Z,80.46
2023-03-06T21:21:20.715Z,81.04
2023-03-06T21:25:21.650Z,80.54
2023-03-06T21:29:22.064Z,79.93
2023-03-06T21:33:22.748Z,79.76
2023-03-06T21:37:26.307Z,79.61
2023-03-06T21:41:30.658Z,79.83
2023-03-06T21:45:31.459Z,80.23
2023-03-06T21:49:32.098Z,80.35
2023-03-06T21:53:35.249Z,80.00
2023-03-06T21:57:39.266Z,80.43
2023-03-06T22:01:40.287Z,79.16
2023-03-06T22:05:43.403Z,79.72
2023-03-06T22:09:46.768Z,79.54
2023-03-06T22:13:48.536Z,78.94
2023-03-06T22:17:49.933Z,79.55
2023-03-06T22:21:50.315Z,78.50
2023-03-06T22:25:53.585Z,78.26
2023-03-06T22:29:54.022Z,77.81
2023-03-06T22:33:55.540Z,77.22
2023-03-06T22:37:56.234Z,77.09
2023-03-06T22:42:01.402Z,76.74
2023-03-06T22:46:05.193Z,75.97
2023-03-06T22:50:05.943Z,75.04
2023-03-06T22:54:06.499Z,74.65
2023-03-06T22:58:10.027Z,74.56
2023-03-06T23:02:10.877Z,73.78
2023-03-06T23:06:14.596Z,73.49
2023-03-06T23:10:15.248Z,72.87
2023-03-06T23:14:37.266Z,72.45
2023-03-06T23:18:59.629Z,73.04
2023-03-06T23:23:18.623Z,73.25
2023-03-06T23:27:19.732Z,73.18
2023-03-06T23:31:28.598Z,72.69
2023-03-06T23:35:29.447Z,72.58
2023-03-06T23:39:30.592Z,72.86
2023-03-06T23:43:31.746Z,72.31
2023-03-06T23:47:37.940Z,72.11
2023-03-06T23:51:38.286Z,72.22
2023-03-06T23:55:38.791Z,72.54
2023-03-06T23:59:39.662Z,72.64
